createdAt,value
2023-02-12T00:02:23.660Z,103460.88
2023-02-12T00:07:38.416Z,103453.31
2023-02-12T00:12:54.017Z,103449.75
2023-02-12T00:18:09.757Z,103458.09
2023-02-12T00:23:25.601Z,103461.66
2023-02-12T00:28:40.701Z,103453.66
2023-02-12T00:33:55.616Z,103457.66
2023-02-12T00:39:10.673Z,103450.53
2023-02-12T00:44:25.662Z,103450.09
2023-02-12T00:49:40.637Z,103452.88
2023-02-12T00:54:55.684Z,103459.22
2023-02-12T01:00:10.627Z,103463.53
2023-02-12T01:05:26.036Z,103455.66
2023-02-12T01:10:41.606Z,103458.44
2023-02-12T01:15:56.982Z,103454.88
2023-02-12T01:21:12.678Z,103448.97
2023-02-12T01:26:27.604Z,103456.44
2023-02-12T01:31:43.109Z,103450.41
2023-02-12T01:36:59.621Z,103450.72
2023-02-12T01:42:14.596Z,103443.63
2023-02-12T01:47:30.009Z,103455.84
2023-02-12T01:52:45.598Z,103449.09
2023-02-12T01:58:01.049Z,103454.28
2023-02-12T02:03:16.680Z,103465.00
2023-02-12T02:08:31.581Z,103453.97
2023-02-12T02:13:46.894Z,103450.31
2023-02-12T02:19:02.964Z,103455.53
2023-02-12T02:24:18.657Z,103451.66
2023-02-12T02:29:33.614Z,103452.53
2023-02-12T02:34:49.895Z,103440.31
2023-02-12T02:40:06.627Z,103440.03
2023-02-12T02:45:21.574Z,103430.91
2023-02-12T02:50:36.613Z,103432.44
2023-02-12T02:55:52.038Z,103432.75
2023-02-12T03:01:07.628Z,103427.63
2023-02-12T03:06:22.609Z,103435.69
2023-02-12T03:11:38.079Z,103416.78
2023-02-12T03:16:53.646Z,103419.25
2023-02-12T03:22:09.029Z,103431.75
2023-02-12T03:27:24.354Z,103415.84
2023-02-12T03:32:39.907Z,103419.13
2023-02-12T03:37:55.584Z,103423.56
2023-02-12T03:43:10.653Z,103424.34
2023-02-12T03:48:25.611Z,103431.91
2023-02-12T03:53:40.664Z,103437.94
2023-02-12T03:58:55.909Z,103434.38
2023-02-12T04:04:11.744Z,103441.50
2023-02-12T04:09:27.968Z,103446.28
2023-02-12T04:14:43.939Z,103447.06
2023-02-12T04:19:59.617Z,103449.84
2023-02-12T04:25:14.958Z,103455.06
2023-02-12T04:30:30.655Z,103466.19
2023-02-12T04:35:45.938Z,103470.19
2023-02-12T04:41:01.889Z,103477.31
2023-02-12T04:46:17.989Z,103472.19
2023-02-12T04:51:33.359Z,103471.44
2023-02-12T04:56:48.974Z,103479.78
2023-02-12T05:02:04.609Z,103470.66
2023-02-12T05:07:20.078Z,103478.69
2023-02-12T05:12:35.922Z,103484.25
2023-02-12T05:17:51.875Z,103493.06
2023-02-12T05:23:07.659Z,103485.47
2023-02-12T05:28:22.670Z,103484.72
2023-02-12T05:33:37.970Z,103483.13
2023-02-12T05:38:53.397Z,103487.13
2023-02-12T05:44:08.609Z,103495.47
2023-02-12T05:49:24.074Z,103489.91
2023-02-12T05:54:39.357Z,103483.56
2023-02-12T05:59:54.586Z,103486.34
2023-02-12T06:05:20.721Z,103494.69
2023-02-12T06:10:35.579Z,103486.34
2023-02-12T06:15:51.099Z,103498.25
2023-02-12T06:21:06.579Z,103495.91
2023-02-12T06:26:21.355Z,103488.69
2023-02-12T06:31:36.499Z,103497.81
2023-02-12T06:36:51.880Z,103489.47
2023-02-12T06:42:07.648Z,103503.38
2023-02-12T06:47:22.604Z,103500.94
2023-02-12T06:52:37.925Z,103496.16
2023-02-12T06:57:53.732Z,103505.56
2023-02-12T07:03:08.441Z,103508.59
2023-02-12T07:08:23.642Z,103512.91
2023-02-12T07:13:38.693Z,103514.00
2023-02-12T07:18:53.634Z,103521.00
2023-02-12T07:24:08.645Z,103520.91
2023-02-12T07:29:23.727Z,103535.25
2023-02-12T07:34:38.924Z,103533.06
2023-02-12T07:39:54.652Z,103532.41
2023-02-12T07:45:10.011Z,103537.63
2023-02-12T07:50:25.634Z,103541.97
2023-02-12T07:55:40.802Z,103545.66
2023-02-12T08:00:55.646Z,103553.34
2023-02-12T08:06:10.667Z,103550.66
2023-02-12T08:11:25.933Z,103556.38
2023-02-12T08:16:42.052Z,103564.22
2023-02-12T08:21:57.381Z,103567.50
2023-02-12T08:27:12.682Z,103581.84
2023-02-12T08:32:27.649Z,103579.47
2023-02-12T08:37:42.682Z,103593.06
2023-02-12T08:42:57.718Z,103596.28
2023-02-12T08:48:12.672Z,103602.31
2023-02-12T08:53:27.989Z,103597.63
2023-02-12T08:58:43.704Z,103609.66
2023-02-12T09:03:59.007Z,103617.69
2023-02-12T09:09:14.373Z,103613.75
2023-02-12T09:14:29.647Z,103609.41
2023-02-12T09:19:44.658Z,103611.88
2023-02-12T09:24:59.643Z,103611.53
2023-02-12T09:30:14.594Z,103620.66
2023-02-12T09:35:29.611Z,103616.75
2023-02-12T09:40:44.659Z,103607.63
2023-02-12T09:45:59.883Z,103608.84
2023-02-12T09:51:15.995Z,103618.41
2023-02-12T09:56:31.719Z,103614.09
2023-02-12T10:01:46.681Z,103620.44
2023-02-12T10:07:01.639Z,103614.53
2023-02-12T10:12:16.719Z,103622.88
2023-02-12T10:17:31.425Z,103613.72
2023-02-12T10:22:56.390Z,103616.50
2023-02-12T10:28:12.686Z,103625.66
2023-02-12T10:33:28.016Z,103617.72
2023-02-12T10:38:44.172Z,103614.97
2023-02-12T10:44:01.014Z,103614.22
2023-02-12T10:49:17.056Z,103612.63
2023-02-12T10:54:32.604Z,103603.53
2023-02-12T10:59:47.668Z,103613.88
2023-02-12T11:05:02.816Z,103622.97
2023-02-12T11:10:17.668Z,103623.75
2023-02-12T11:15:32.752Z,103616.31
2023-02-12T11:20:47.704Z,103613.88
2023-02-12T11:26:02.940Z,103611.09
2023-02-12T11:31:18.718Z,103605.53
2023-02-12T11:36:33.683Z,103595.19
2023-02-12T11:41:48.688Z,103586.84
2023-02-12T11:47:04.688Z,103595.19
2023-02-12T11:52:19.783Z,103596.41
2023-02-12T11:57:35.642Z,103597.19
2023-02-12T12:02:50.792Z,103589.63
2023-02-12T12:08:06.011Z,103587.28
2023-02-12T12:13:21.684Z,103575.72
2023-02-12T12:18:36.652Z,103582.50
2023-02-12T12:23:51.748Z,103566.59
2023-02-12T12:29:06.989Z,103557.50
2023-02-12T12:34:22.700Z,103560.25
2023-02-12T12:39:37.723Z,103547.16
2023-02-12T12:44:52.650Z,103540.81
2023-02-12T12:50:07.641Z,103537.25
2023-02-12T12:55:22.738Z,103539.25
2023-02-12T13:00:37.630Z,103532.94
2023-02-12T13:05:52.765Z,103534.94
2023-02-12T13:11:07.688Z,103532.16
2023-02-12T13:16:22.668Z,103527.78
2023-02-12T13:21:37.626Z,103520.66
2023-02-12T13:26:52.642Z,103527.00
2023-02-12T13:32:08.087Z,103514.69
2023-02-12T13:37:23.970Z,103514.81
2023-02-12T13:42:39.647Z,103512.31
2023-02-12T13:47:54.682Z,103514.34
2023-02-12T13:53:09.686Z,103506.00
2023-02-12T13:58:24.668Z,103499.66
2023-02-12T14:03:39.704Z,103496.88
2023-02-12T14:08:55.668Z,103494.88
2023-02-12T14:14:10.669Z,103493.34
2023-02-12T14:19:25.649Z,103491.31
2023-02-12T14:24:40.664Z,103485.00
2023-02-12T14:29:55.706Z,103485.00
2023-02-12T14:35:11.040Z,103482.97
2023-02-12T14:40:26.984Z,103478.34
2023-02-12T14:45:42.674Z,103471.56
2023-02-12T14:50:57.681Z,103477.88
2023-02-12T14:56:12.635Z,103480.66
2023-02-12T15:01:28.096Z,103484.22
2023-02-12T15:06:44.026Z,103481.88
2023-02-12T15:11:59.679Z,103486.22
2023-02-12T15:17:14.475Z,103475.09
2023-02-12T15:22:30.002Z,103479.09
2023-02-12T15:27:45.674Z,103469.22
2023-02-12T15:33:00.760Z,103474.00
2023-02-12T15:38:16.109Z,103470.47
2023-02-12T15:43:31.942Z,103472.00
2023-02-12T15:48:47.659Z,103459.34
2023-02-12T15:54:03.000Z,103464.09
2023-02-12T15:59:18.987Z,103461.31
2023-02-12T16:04:35.039Z,103464.91
2023-02-12T16:09:50.704Z,103462.13
2023-02-12T16:15:05.418Z,103458.53
2023-02-12T16:20:20.689Z,103456.97
2023-02-12T16:25:35.662Z,103457.75
2023-02-12T16:30:50.648Z,103453.84
2023-02-12T16:36:05.640Z,103454.19
2023-02-12T16:41:21.077Z,103450.63
2023-02-12T16:46:36.673Z,103456.19
2023-02-12T16:51:51.388Z,103452.66
2023-02-12T16:57:06.650Z,103462.19
2023-02-12T17:02:21.716Z,103451.88
2023-02-12T17:07:36.630Z,103466.97
2023-02-12T17:12:51.769Z,103461.41
2023-02-12T17:18:06.644Z,103462.66
2023-02-12T17:23:22.045Z,103465.44
2023-02-12T17:28:37.802Z,103464.66
2023-02-12T17:33:52.468Z,103467.88
2023-02-12T17:39:07.644Z,103471.09
2023-02-12T17:44:22.626Z,103475.41
2023-02-12T17:49:37.709Z,103473.88
2023-02-12T17:54:53.022Z,103483.44
2023-02-12T18:00:08.702Z,103489.78
2023-02-12T18:05:23.676Z,103496.56
2023-02-12T18:10:39.041Z,103493.00
2023-02-12T18:15:54.683Z,103495.78
2023-02-12T18:21:09.694Z,103502.91
2023-02-12T18:26:24.700Z,103504.91
2023-02-12T18:31:39.570Z,103501.34
2023-02-12T18:36:54.650Z,103491.44
2023-02-12T18:42:09.644Z,103499.00
2023-02-12T18:47:24.732Z,103499.78
2023-02-12T18:52:39.701Z,103501.78
2023-02-12T18:57:55.056Z,103507.00
2023-02-12T19:03:10.952Z,103493.53
2023-02-12T19:08:26.698Z,103497.47
2023-02-12T19:13:41.456Z,103488.00
2023-02-12T19:18:56.429Z,103491.00
2023-02-12T19:24:11.653Z,103494.44
2023-02-12T19:29:26.667Z,103485.53
2023-02-12T19:34:41.655Z,103483.53
2023-02-12T19:39:56.644Z,103488.22
2023-02-12T19:45:11.669Z,103477.28
2023-02-12T19:50:26.698Z,103466.53
2023-02-12T19:55:41.701Z,103474.50
2023-02-12T20:00:56.897Z,103476.41
2023-02-12T20:06:12.664Z,103477.50
2023-02-12T20:11:27.441Z,103479.84
2023-02-12T20:16:42.697Z,103476.28
2023-02-12T20:21:57.720Z,103469.53
2023-02-12T20:27:12.710Z,103470.31
2023-02-12T20:32:27.777Z,103468.28
2023-02-12T20:37:42.782Z,103458.72
2023-02-12T20:42:57.674Z,103466.28
2023-02-12T20:48:12.666Z,103460.72
2023-02-12T20:53:27.698Z,103465.03
2023-02-12T20:58:42.731Z,103458.72
2023-02-12T21:03:57.426Z,103453.16
2023-02-12T21:09:12.700Z,103454.69
2023-02-12T21:14:27.678Z,103444.34
2023-02-12T21:19:42.687Z,103453.78
2023-02-12T21:24:57.996Z,103453.38
2023-02-12T21:30:13.687Z,103455.22
2023-02-12T21:35:28.709Z,103450.91
2023-02-12T21:40:44.085Z,103454.94
2023-02-12T21:45:59.849Z,103452.16
2023-02-12T21:51:52.642Z,103454.94
2023-02-12T21:57:08.027Z,103457.72
2023-02-12T22:02:23.446Z,103454.94
2023-02-12T22:07:38.691Z,103453.38
2023-02-12T22:12:53.718Z,103447.03
2023-02-12T22:18:09.048Z,103454.16
2023-02-12T22:23:24.409Z,103450.59
2023-02-12T22:28:39.774Z,103444.56
2023-02-12T22:33:54.686Z,103440.25
2023-02-12T22:39:09.693Z,103443.44
2023-02-12T22:44:24.632Z,103441.03
2023-02-12T22:49:39.800Z,103436.69
2023-02-12T22:54:54.703Z,103441.78
2023-02-12T23:00:09.708Z,103437.88
2023-02-12T23:05:24.921Z,103435.75
2023-02-12T23:10:40.655Z,103426.66
2023-02-12T23:15:55.728Z,103420.31
2023-02-12T23:21:10.406Z,103435.75
2023-02-12T23:26:25.654Z,103424.66
2023-02-12T23:31:40.868Z,103429.44
2023-02-12T23:36:56.743Z,103424.66
2023-02-12T23:42:11.686Z,103412.28
2023-02-12T23:47:26.715Z,103405.50
2023-02-12T23:52:41.496Z,103405.50
2023-02-12T23:57:56.686Z,103405.50
